Time;durP1;ratioP1;P1;durP2;ratioP2;P2;SDS_P1;SDS_P2;PMS_P1;PMS_P2;Temp;Humidity;BMP_temperature;BMP_pressure;BME280_temperature;BME280_humidity;BME280_pressure;Samples;Min_cycle;Max_cycle;Signal;HPM_P1;HPM_P2
2021/05/09 00:00:18;;;;;;;3.10;2.90;;;22.50;38.00;;;;;;5005179;28;20260;-43
2021/05/09 00:02:44;;;;;;;3.20;2.90;;;22.50;38.00;;;;;;5004599;28;20202;-45
2021/05/09 00:05:10;;;;;;;2.90;2.50;;;22.40;38.20;;;;;;5006817;28;20508;-45
2021/05/09 00:07:36;;;;;;;5.73;3.00;;;22.40;38.10;;;;;;5009109;28;20197;-46
2021/05/09 00:10:07;;;;;;;4.03;3.63;;;22.40;38.10;;;;;;5010410;28;20441;-43
2021/05/09 00:12:33;;;;;;;3.47;3.27;;;22.50;37.90;;;;;;5000987;28;20194;-45
2021/05/09 00:14:58;;;;;;;3.83;3.57;;;22.40;38.10;;;;;;5008080;28;20432;-45
2021/05/09 00:17:24;;;;;;;3.63;3.33;;;22.00;38.70;;;;;;5005927;28;20190;-45
2021/05/09 00:19:50;;;;;;;3.63;3.33;;;21.60;39.30;;;;;;5009469;28;20293;-44
2021/05/09 00:22:16;;;;;;;3.50;3.00;;;21.30;40.00;;;;;;5011032;28;20257;-46
2021/05/09 00:24:41;;;;;;;4.10;3.10;;;20.80;40.60;;;;;;5004461;28;20449;-43
2021/05/09 00:27:07;;;;;;;4.33;3.10;;;20.60;41.10;;;;;;5011537;28;20233;-44
2021/05/09 00:29:33;;;;;;;3.40;3.10;;;20.40;41.40;;;;;;5007255;28;20190;-43
2021/05/09 00:31:58;;;;;;;3.40;2.93;;;20.10;41.90;;;;;;5008365;28;20205;-43
2021/05/09 00:34:24;;;;;;;3.27;2.97;;;19.80;42.60;;;;;;5011314;28;20248;-44
2021/05/09 00:36:49;;;;;;;3.03;2.80;;;19.70;42.90;;;;;;5008447;28;20662;-44
2021/05/09 00:39:15;;;;;;;3.30;2.93;;;19.70;43.00;;;;;;5008599;28;20327;-47
2021/05/09 00:41:41;;;;;;;2.97;2.70;;;19.60;43.20;;;;;;5007757;28;20588;-43
2021/05/09 00:44:07;;;;;;;2.83;2.63;;;19.50;43.20;;;;;;5005857;28;20206;-45
2021/05/09 00:46:32;;;;;;;3.80;3.07;;;19.40;43.30;;;;;;5001553;28;20198;-47
2021/05/09 00:49:01;;;;;;;3.17;2.70;;;19.40;43.60;;;;;;5009849;28;20490;-45
2021/05/09 00:51:27;;;;;;;4.27;3.03;;;19.20;44.10;;;;;;5008578;28;20565;-45
2021/05/09 00:53:54;;;;;;;3.10;2.77;;;19.00;44.20;;;;;;5004288;28;20453;-43
2021/05/09 00:56:23;;;;;;;3.67;3.33;;;19.00;44.40;;;;;;5004132;28;20566;-48
2021/05/09 00:58:51;;;;;;;4.97;2.80;;;18.80;44.70;;;;;;5007472;28;20436;-45
2021/05/09 01:01:19;;;;;;;2.57;2.37;;;18.70;45.10;;;;;;5003187;28;20903;-46
2021/05/09 01:03:46;;;;;;;7.93;3.20;;;18.60;45.40;;;;;;5007115;28;20785;-44
2021/05/09 01:06:12;;;;;;;2.53;2.33;;;18.60;45.50;;;;;;5010894;28;20944;-44
2021/05/09 01:08:38;;;;;;;4.97;2.90;;;18.40;45.70;;;;;;5003359;28;20449;-46
2021/05/09 01:11:06;;;;;;;3.90;3.60;;;18.50;45.80;;;;;;5008311;28;20198;-44
2021/05/09 01:13:32;;;;;;;3.90;2.93;;;18.60;45.40;;;;;;5007086;28;20641;-44
2021/05/09 01:16:00;;;;;;;6.40;3.50;;;18.50;45.60;;;;;;5008621;28;20452;-44
2021/05/09 01:18:26;;;;;;;3.90;3.53;;;18.50;45.70;;;;;;5012688;28;20590;-44
2021/05/09 01:20:52;;;;;;;3.30;3.00;;;18.60;45.50;;;;;;5012039;28;20558;-44
2021/05/09 01:23:17;;;;;;;5.07;3.00;;;18.60;45.60;;;;;;5005903;28;20433;-47
2021/05/09 01:25:43;;;;;;;3.37;2.93;;;18.60;45.20;;;;;;5008608;28;20198;-46
2021/05/09 01:28:09;;;;;;;3.80;3.40;;;18.60;45.40;;;;;;5005259;28;20213;-44
2021/05/09 01:30:35;;;;;;;3.83;3.50;;;18.20;46.30;;;;;;5003859;28;20273;-46
2021/05/09 01:33:02;;;;;;;4.50;3.57;;;17.90;46.80;;;;;;4997272;28;20198;-46
2021/05/09 01:35:28;;;;;;;3.70;3.30;;;17.70;47.40;;;;;;5008853;28;20479;-42
2021/05/09 01:37:53;;;;;;;4.20;3.50;;;17.90;47.20;;;;;;5009061;28;21283;-45
2021/05/09 01:40:19;;;;;;;4.90;2.73;;;17.90;47.00;;;;;;5004223;28;21598;-47
2021/05/09 01:42:44;;;;;;;3.10;2.80;;;18.00;46.90;;;;;;5003379;28;20205;-45
2021/05/09 01:45:11;;;;;;;3.17;2.97;;;18.20;46.40;;;;;;5007313;28;20668;-45
2021/05/09 01:47:37;;;;;;;3.27;2.47;;;18.20;46.30;;;;;;5008843;28;20248;-45
2021/05/09 01:50:10;;;;;;;2.47;2.27;;;18.00;46.60;;;;;;5003629;28;21021;-43
2021/05/09 01:52:36;;;;;;;2.73;2.53;;;17.80;47.00;;;;;;5008751;28;20925;-47
2021/05/09 01:55:07;;;;;;;3.23;2.93;;;17.70;47.30;;;;;;5009553;28;20506;-43
2021/05/09 01:57:33;;;;;;;3.40;3.10;;;17.30;47.90;;;;;;5005940;28;20450;-43
2021/05/09 01:59:59;;;;;;;3.03;2.70;;;17.10;48.40;;;;;;5001260;28;20489;-46
2021/05/09 02:02:25;;;;;;;4.30;2.53;;;17.20;48.40;;;;;;5000281;28;20194;-44
2021/05/09 02:04:53;;;;;;;2.80;2.60;;;17.40;48.20;;;;;;5002734;28;20203;-46
2021/05/09 02:07:19;;;;;;;4.17;2.63;;;17.40;48.10;;;;;;5001635;28;20443;-43
2021/05/09 02:09:45;;;;;;;5.83;2.67;;;17.30;48.00;;;;;;5003864;28;20449;-46
2021/05/09 02:12:11;;;;;;;2.60;2.40;;;17.30;48.30;;;;;;5009554;28;20527;-46
2021/05/09 02:14:37;;;;;;;2.57;2.37;;;17.30;48.30;;;;;;5007845;28;20433;-44
2021/05/09 02:17:03;;;;;;;6.23;2.47;;;17.40;48.20;;;;;;5008068;28;20209;-43
2021/05/09 02:19:29;;;;;;;3.00;2.70;;;17.40;47.90;;;;;;5005475;28;20225;-45
2021/05/09 02:21:55;;;;;;;4.90;2.60;;;17.40;47.90;;;;;;5006417;28;20951;-43
2021/05/09 02:24:20;;;;;;;4.63;2.30;;;17.50;47.80;;;;;;5008042;28;20195;-47
2021/05/09 02:26:46;;;;;;;5.63;2.77;;;17.50;47.70;;;;;;5007134;28;20202;-45
2021/05/09 02:29:12;;;;;;;2.70;2.50;;;17.40;47.90;;;;;;5010265;28;20559;-46
2021/05/09 02:31:37;;;;;;;2.77;2.57;;;17.50;47.90;;;;;;5011623;28;20194;-44
2021/05/09 02:34:03;;;;;;;2.50;2.30;;;17.40;47.90;;;;;;5006486;28;20301;-43
2021/05/09 02:36:28;;;;;;;2.10;1.90;;;17.50;47.80;;;;;;5010032;28;20194;-45
2021/05/09 02:38:54;;;;;;;2.90;2.60;;;17.20;48.30;;;;;;5007828;28;20230;-43
2021/05/09 02:41:21;;;;;;;5.63;2.47;;;17.10;48.40;;;;;;5010442;28;20232;-43
2021/05/09 02:43:46;;;;;;;2.50;2.30;;;17.10;48.40;;;;;;5002077;28;20205;-45
2021/05/09 02:46:12;;;;;;;3.20;2.90;;;17.10;48.60;;;;;;5010449;28;20448;-45
2021/05/09 02:48:37;;;;;;;3.13;2.83;;;16.90;48.70;;;;;;5011564;28;20277;-43
2021/05/09 02:51:03;;;;;;;2.63;2.43;;;17.00;48.60;;;;;;5008894;28;20198;-44
2021/05/09 02:53:29;;;;;;;2.90;2.70;;;17.20;48.40;;;;;;5008477;28;20205;-43
2021/05/09 02:55:54;;;;;;;6.27;3.20;;;17.30;48.30;;;;;;5013500;28;20221;-44
2021/05/09 02:58:20;;;;;;;3.00;2.63;;;17.30;48.10;;;;;;5004411;28;20190;-44
2021/05/09 03:00:45;;;;;;;2.63;2.43;;;17.30;48.00;;;;;;5008408;28;20232;-45
2021/05/09 03:03:11;;;;;;;2.47;2.27;;;17.40;47.90;;;;;;5004864;28;20271;-44
2021/05/09 03:05:37;;;;;;;2.33;2.20;;;17.40;47.70;;;;;;5014587;28;20198;-43
2021/05/09 03:08:03;;;;;;;3.00;2.37;;;17.50;47.90;;;;;;5009322;28;20201;-43
2021/05/09 03:10:29;;;;;;;2.57;2.37;;;17.60;47.70;;;;;;5011878;28;20467;-44
2021/05/09 03:12:54;;;;;;;2.30;2.10;;;17.70;47.30;;;;;;5007864;28;20193;-45
2021/05/09 03:15:20;;;;;;;2.60;2.40;;;17.80;47.00;;;;;;5012220;28;20673;-43
2021/05/09 03:17:46;;;;;;;3.10;2.90;;;17.90;46.70;;;;;;5009084;28;20195;-44
2021/05/09 03:20:11;;;;;;;2.53;2.33;;;17.90;46.70;;;;;;5010369;28;20225;-45
2021/05/09 03:22:37;;;;;;;3.27;2.70;;;17.90;46.60;;;;;;5011096;28;20202;-44
2021/05/09 03:25:03;;;;;;;2.83;2.60;;;17.90;46.60;;;;;;5010151;28;20245;-44
2021/05/09 03:27:29;;;;;;;3.43;2.40;;;17.90;46.50;;;;;;5011700;28;20315;-43
2021/05/09 03:29:54;;;;;;;2.70;2.50;;;17.50;47.40;;;;;;5010206;28;20480;-44
2021/05/09 03:32:20;;;;;;;2.70;2.50;;;17.40;47.90;;;;;;5008297;28;20205;-46
2021/05/09 03:34:46;;;;;;;2.67;2.47;;;17.40;47.60;;;;;;5007682;28;20277;-43
2021/05/09 03:37:12;;;;;;;2.80;2.57;;;17.50;47.30;;;;;;4999504;28;20702;-43
2021/05/09 03:39:37;;;;;;;2.90;2.70;;;17.40;47.40;;;;;;5006616;28;20229;-43
2021/05/09 03:42:03;;;;;;;2.63;2.43;;;17.40;47.70;;;;;;5009004;28;20437;-44
2021/05/09 03:44:29;;;;;;;2.80;2.60;;;17.50;47.60;;;;;;5009679;28;20281;-46
2021/05/09 03:46:54;;;;;;;2.40;2.20;;;17.60;47.40;;;;;;5011021;28;20224;-43
2021/05/09 03:49:20;;;;;;;2.73;2.53;;;17.60;47.20;;;;;;5012585;28;20259;-45
2021/05/09 03:51:45;;;;;;;2.77;2.57;;;17.60;47.20;;;;;;5010989;28;20202;-43
2021/05/09 03:54:11;;;;;;;3.63;2.67;;;17.60;47.30;;;;;;5010429;28;20200;-44
2021/05/09 03:56:36;;;;;;;2.07;1.90;;;17.60;46.90;;;;;;5007624;28;20578;-45
2021/05/09 03:59:02;;;;;;;3.47;2.40;;;17.60;46.90;;;;;;5004961;28;20273;-45
2021/05/09 04:01:28;;;;;;;2.60;2.40;;;17.70;46.90;;;;;;5004428;28;20210;-43
2021/05/09 04:03:53;;;;;;;2.60;2.40;;;17.80;46.80;;;;;;5011528;28;20194;-43
2021/05/09 04:06:19;;;;;;;2.80;2.60;;;17.80;46.60;;;;;;5009034;28;20537;-43
2021/05/09 04:08:45;;;;;;;3.17;2.87;;;17.70;46.50;;;;;;5001192;28;20194;-46
2021/05/09 04:11:12;;;;;;;3.90;3.60;;;17.80;46.80;;;;;;5008963;28;20204;-47
2021/05/09 04:13:46;;;;;;;2.40;2.20;;;17.80;46.50;;;;;;5008332;28;20209;-46
2021/05/09 04:16:11;;;;;;;2.70;2.40;;;17.70;46.40;;;;;;5004091;28;20518;-42
2021/05/09 04:18:37;;;;;;;2.00;1.90;;;17.70;46.50;;;;;;5008730;28;20449;-46
2021/05/09 04:21:03;;;;;;;2.57;2.37;;;17.70;46.60;;;;;;5012254;28;20221;-43
2021/05/09 04:23:29;;;;;;;2.67;2.47;;;17.60;46.70;;;;;;5005235;28;20661;-44
2021/05/09 04:25:54;;;;;;;6.40;2.30;;;17.60;46.90;;;;;;5010340;28;20441;-47
2021/05/09 04:28:20;;;;;;;4.63;2.60;;;17.50;47.40;;;;;;5008391;28;20198;-45
2021/05/09 04:30:47;;;;;;;3.00;2.20;;;17.50;47.60;;;;;;5009864;28;20715;-43
2021/05/09 04:33:12;;;;;;;2.43;2.23;;;17.50;47.80;;;;;;5005264;28;21235;-46
2021/05/09 04:35:42;;;;;;;4.03;2.30;;;17.50;47.80;;;;;;5007628;28;20507;-46
2021/05/09 04:38:08;;;;;;;2.90;2.23;;;17.50;47.50;;;;;;5003365;28;20238;-45
2021/05/09 04:40:34;;;;;;;2.97;2.67;;;17.60;47.40;;;;;;5007085;28;20481;-45
2021/05/09 04:43:08;;;;;;;1.90;1.80;;;17.60;47.10;;;;;;5007247;28;20539;-43
2021/05/09 04:45:34;;;;;;;2.00;1.90;;;17.50;48.10;;;;;;5006850;28;20198;-44
2021/05/09 04:48:01;;;;;;;2.60;2.40;;;17.40;48.10;;;;;;5003784;28;20448;-43
2021/05/09 04:50:26;;;;;;;2.33;2.13;;;17.50;48.00;;;;;;5007819;28;20449;-43
2021/05/09 04:52:53;;;;;;;2.20;2.00;;;17.50;48.10;;;;;;5007152;28;20444;-46
2021/05/09 04:55:19;;;;;;;2.43;2.23;;;17.40;48.10;;;;;;5004968;28;20252;-45
2021/05/09 04:57:44;;;;;;;2.27;2.07;;;17.30;48.20;;;;;;5010878;28;20472;-44
2021/05/09 05:00:13;;;;;;;2.40;2.20;;;17.30;48.70;;;;;;5001872;28;21299;-43
2021/05/09 05:02:39;;;;;;;2.50;2.30;;;17.40;48.30;;;;;;4998795;28;20263;-44
2021/05/09 05:05:05;;;;;;;2.87;2.30;;;17.40;48.30;;;;;;5010346;28;20440;-46
2021/05/09 05:07:31;;;;;;;2.07;1.93;;;17.50;48.80;;;;;;5004916;28;20947;-45
2021/05/09 05:09:56;;;;;;;2.63;2.40;;;17.60;48.00;;;;;;5008176;28;20457;-44
2021/05/09 05:12:22;;;;;;;2.23;2.03;;;17.70;48.30;;;;;;5008406;28;20206;-44
2021/05/09 05:14:48;;;;;;;2.13;2.03;;;17.70;47.60;;;;;;5010213;28;20190;-44
2021/05/09 05:17:13;;;;;;;2.60;2.20;;;17.80;47.70;;;;;;5010920;28;20194;-46
2021/05/09 05:19:39;;;;;;;2.37;2.20;;;17.80;47.40;;;;;;5004336;28;20276;-46
2021/05/09 05:22:04;;;;;;;2.03;1.93;;;17.90;47.50;;;;;;5005020;28;20578;-43
2021/05/09 05:24:30;;;;;;;2.00;1.90;;;18.00;47.30;;;;;;5009381;28;20193;-43
2021/05/09 05:26:56;;;;;;;2.77;2.57;;;18.10;47.00;;;;;;5005301;28;20197;-46
2021/05/09 05:29:22;;;;;;;3.40;2.80;;;18.30;46.80;;;;;;5002351;28;20508;-44
2021/05/09 05:31:50;;;;;;;4.43;4.03;;;18.40;46.70;;;;;;5008893;28;20186;-42
2021/05/09 05:34:16;;;;;;;3.87;3.47;;;18.40;46.60;;;;;;5005751;28;20251;-44
2021/05/09 05:36:41;;;;;;;5.90;3.10;;;18.40;46.70;;;;;;5004336;28;20821;-43
2021/05/09 05:39:08;;;;;;;3.40;2.83;;;18.30;46.70;;;;;;5003706;28;20206;-43
2021/05/09 05:41:33;;;;;;;2.40;2.20;;;18.30;46.90;;;;;;5009330;28;20202;-48
2021/05/09 05:43:59;;;;;;;3.13;2.43;;;18.20;47.00;;;;;;5008438;28;20448;-43
2021/05/09 05:46:27;;;;;;;2.77;2.03;;;18.10;47.20;;;;;;5008399;28;20197;-43
2021/05/09 05:48:54;;;;;;;2.83;2.57;;;17.90;47.50;;;;;;5002595;28;20198;-44
2021/05/09 05:51:19;;;;;;;2.37;2.27;;;17.70;48.20;;;;;;5010228;28;20471;-43
2021/05/09 05:53:45;;;;;;;2.80;2.60;;;17.50;48.50;;;;;;5004366;28;20481;-43
2021/05/09 05:56:11;;;;;;;2.30;2.20;;;17.30;49.10;;;;;;5007174;28;20605;-43
2021/05/09 05:58:36;;;;;;;2.87;2.40;;;16.90;49.70;;;;;;5001112;28;20197;-43
2021/05/09 06:01:02;;;;;;;3.73;2.30;;;16.80;50.70;;;;;;5008675;28;20554;-47
2021/05/09 06:03:29;;;;;;;6.00;2.17;;;16.80;50.50;;;;;;5003703;28;20198;-43
2021/05/09 06:05:56;;;;;;;2.43;2.23;;;17.10;50.20;;;;;;5011430;28;20206;-43
2021/05/09 06:08:23;;;;;;;2.47;2.27;;;17.40;49.60;;;;;;5008779;28;20940;-43
2021/05/09 06:10:49;;;;;;;2.60;2.40;;;17.60;49.30;;;;;;5007961;28;20540;-44
2021/05/09 06:13:15;;;;;;;2.13;2.03;;;17.60;49.00;;;;;;5005335;28;20517;-47
2021/05/09 06:15:41;;;;;;;2.90;2.60;;;17.60;49.40;;;;;;5011547;28;20275;-43
2021/05/09 06:18:07;;;;;;;4.40;2.30;;;17.50;49.60;;;;;;5006900;28;20472;-45
2021/05/09 06:20:33;;;;;;;2.30;2.10;;;17.60;49.90;;;;;;5013984;28;20492;-46
2021/05/09 06:23:01;;;;;;;2.53;2.33;;;17.80;49.80;;;;;;5002965;28;20459;-43
2021/05/09 06:25:27;;;;;;;2.43;2.20;;;18.00;49.50;;;;;;5013576;28;20198;-43
2021/05/09 06:27:53;;;;;;;2.50;2.30;;;18.10;49.30;;;;;;5014083;28;20502;-44
2021/05/09 06:30:19;;;;;;;2.60;2.40;;;18.30;49.30;;;;;;5010341;28;20669;-44
2021/05/09 06:32:45;;;;;;;5.53;2.70;;;18.60;49.40;;;;;;5007716;28;20951;-48
2021/05/09 06:35:11;;;;;;;2.30;2.00;;;18.80;49.00;;;;;;5013923;28;20448;-45
2021/05/09 06:37:37;;;;;;;2.63;2.03;;;19.00;48.70;;;;;;5011711;28;20284;-43
2021/05/09 06:40:04;;;;;;;2.30;2.20;;;19.20;48.40;;;;;;5012590;28;20959;-44
2021/05/09 06:42:30;;;;;;;5.73;2.57;;;19.40;48.30;;;;;;5008313;28;20665;-44
2021/05/09 06:45:04;;;;;;;2.40;2.20;;;19.60;48.10;;;;;;5002971;28;20437;-45
2021/05/09 06:47:30;;;;;;;2.93;2.70;;;19.80;47.90;;;;;;5008796;28;20670;-48
2021/05/09 06:49:55;;;;;;;2.43;2.23;;;19.80;47.40;;;;;;5010321;28;20470;-47
2021/05/09 06:52:21;;;;;;;3.13;2.50;;;20.00;47.50;;;;;;5009039;28;20271;-46
2021/05/09 06:54:47;;;;;;;3.07;2.40;;;20.20;47.20;;;;;;5004749;28;20658;-47
2021/05/09 06:57:12;;;;;;;3.27;2.13;;;20.40;47.20;;;;;;5003068;28;20293;-44
2021/05/09 06:59:38;;;;;;;2.97;2.63;;;20.40;46.50;;;;;;5005666;28;20698;-45
2021/05/09 07:02:04;;;;;;;2.43;2.23;;;20.60;46.70;;;;;;4998823;28;20218;-46
2021/05/09 07:04:30;;;;;;;1.93;1.83;;;20.80;46.70;;;;;;4999595;28;20588;-48
2021/05/09 07:06:55;;;;;;;3.00;2.10;;;21.10;45.90;;;;;;5009996;28;20198;-45
2021/05/09 07:09:21;;;;;;;2.23;2.03;;;21.30;46.30;;;;;;5010671;28;20922;-45
2021/05/09 07:11:47;;;;;;;4.67;2.20;;;21.60;45.40;;;;;;5002708;28;20226;-47
2021/05/09 07:14:12;;;;;;;2.03;1.90;;;21.70;45.40;;;;;;5004020;28;20245;-44
2021/05/09 07:16:38;;;;;;;2.00;1.80;;;21.90;45.20;;;;;;5009248;28;20221;-48
2021/05/09 07:19:06;;;;;;;1.97;1.87;;;22.10;44.80;;;;;;5001476;28;20202;-45
2021/05/09 07:21:40;;;;;;;2.80;1.80;;;22.40;44.50;;;;;;5004126;28;20252;-48
2021/05/09 07:24:06;;;;;;;2.47;1.90;;;22.50;44.50;;;;;;4999286;28;20933;-45
2021/05/09 07:26:32;;;;;;;2.13;2.03;;;22.80;44.50;;;;;;5007232;28;20450;-46
2021/05/09 07:28:57;;;;;;;1.80;1.70;;;22.90;43.30;;;;;;5005165;28;20442;-48
2021/05/09 07:31:23;;;;;;;1.67;1.57;;;23.10;43.70;;;;;;5010445;28;20668;-47
2021/05/09 07:33:48;;;;;;;2.73;1.80;;;23.30;42.70;;;;;;5001874;28;20270;-47
2021/05/09 07:36:14;;;;;;;1.27;1.17;;;23.50;41.80;;;;;;5010306;28;20190;-44
2021/05/09 07:38:39;;;;;;;2.13;1.80;;;23.60;41.90;;;;;;5011551;28;20307;-47
2021/05/09 07:41:05;;;;;;;3.13;1.77;;;23.60;41.70;;;;;;5005843;28;20261;-48
2021/05/09 07:43:32;;;;;;;2.33;1.80;;;23.70;41.80;;;;;;5012324;28;20213;-48
2021/05/09 07:45:57;;;;;;;1.50;1.40;;;23.80;40.70;;;;;;5013924;28;20653;-45
2021/05/09 07:48:23;;;;;;;1.47;1.37;;;23.80;40.20;;;;;;5011263;28;20445;-47
2021/05/09 07:50:49;;;;;;;1.60;1.50;;;23.60;39.80;;;;;;5003871;28;20207;-48
2021/05/09 07:53:15;;;;;;;2.20;1.90;;;23.70;39.70;;;;;;5000078;28;20199;-44
2021/05/09 07:55:41;;;;;;;2.20;1.53;;;23.70;40.20;;;;;;4997149;28;20213;-46
2021/05/09 07:58:20;;;;;;;1.83;1.67;;;24.10;40.10;;;;;;5003725;28;20190;-49
2021/05/09 08:00:47;;;;;;;1.80;1.70;;;24.60;40.30;;;;;;5013355;28;20580;-47
2021/05/09 08:03:13;;;;;;;1.57;1.47;;;24.70;39.70;;;;;;5007243;28;20433;-49
2021/05/09 08:05:39;;;;;;;1.43;1.33;;;24.90;38.30;;;;;;5002088;28;20440;-48
2021/05/09 08:08:06;;;;;;;1.60;1.50;;;24.80;37.90;;;;;;5006287;28;20475;-46
2021/05/09 08:10:40;;;;;;;1.40;1.30;;;25.00;37.50;;;;;;5012997;28;20439;-46
2021/05/09 08:13:07;;;;;;;3.70;1.37;;;25.30;37.60;;;;;;5001843;28;20460;-49
2021/05/09 08:15:33;;;;;;;3.20;1.47;;;25.60;37.30;;;;;;5006585;28;20433;-49
2021/05/09 08:17:59;;;;;;;2.67;1.33;;;25.80;37.40;;;;;;4994839;28;20975;-49
2021/05/09 08:20:26;;;;;;;1.40;1.30;;;26.20;36.50;;;;;;5011232;28;20480;-46
2021/05/09 08:22:52;;;;;;;1.73;1.40;;;26.20;36.80;;;;;;5009644;28;20434;-49
2021/05/09 08:25:19;;;;;;;1.90;1.20;;;26.40;36.50;;;;;;5013024;28;20432;-48
2021/05/09 08:27:45;;;;;;;2.00;1.80;;;26.80;36.10;;;;;;5010603;28;20734;-48
2021/05/09 08:30:16;;;;;;;3.40;1.50;;;27.00;35.50;;;;;;5008488;28;20499;-48
2021/05/09 08:32:41;;;;;;;1.53;1.43;;;27.20;35.20;;;;;;5004837;28;20434;-48
2021/05/09 08:35:10;;;;;;;3.50;1.40;;;27.40;34.70;;;;;;4993552;28;20426;-49
2021/05/09 08:37:37;;;;;;;1.83;1.20;;;27.60;35.30;;;;;;5008486;28;20238;-49
2021/05/09 08:40:04;;;;;;;1.67;1.30;;;27.90;33.80;;;;;;5012643;28;20964;-48
2021/05/09 08:42:30;;;;;;;1.63;1.30;;;28.00;33.70;;;;;;5009278;28;20441;-49
2021/05/09 08:44:56;;;;;;;3.07;1.50;;;28.00;32.30;;;;;;5012913;28;20456;-45
2021/05/09 08:47:22;;;;;;;1.83;1.50;;;28.10;32.10;;;;;;5011712;28;20473;-45
2021/05/09 08:49:49;;;;;;;1.37;1.27;;;28.40;32.60;;;;;;5009015;28;20205;-47
2021/05/09 08:52:19;;;;;;;2.20;1.50;;;28.50;30.20;;;;;;5011077;28;20476;-48
2021/05/09 08:54:46;;;;;;;2.70;1.20;;;28.60;31.20;;;;;;4998405;28;20457;-47
2021/05/09 08:57:12;;;;;;;1.83;1.00;;;28.90;30.70;;;;;;4994359;28;20468;-46
2021/05/09 08:59:38;;;;;;;1.43;1.20;;;29.20;30.10;;;;;;4996857;28;20491;-48
2021/05/09 09:02:04;;;;;;;1.30;1.20;;;29.40;29.20;;;;;;5007807;28;20444;-48
2021/05/09 09:04:46;;;;;;;1.30;1.20;;;29.50;29.20;;;;;;5006020;28;20437;-48
2021/05/09 09:07:12;;;;;;;1.63;1.20;;;29.60;28.70;;;;;;4999474;28;20653;-47
2021/05/09 09:09:46;;;;;;;1.60;1.50;;;29.80;28.90;;;;;;4996974;28;20449;-49
2021/05/09 09:12:13;;;;;;;2.40;1.23;;;29.70;28.60;;;;;;4997039;28;20456;-50
2021/05/09 09:14:53;;;;;;;1.20;1.10;;;29.70;28.30;;;;;;5007415;28;20424;-49
2021/05/09 09:17:19;;;;;;;1.50;1.40;;;29.90;27.70;;;;;;4994895;28;20471;-48
2021/05/09 09:20:05;;;;;;;1.83;1.40;;;29.80;28.20;;;;;;5003119;28;20484;-47
2021/05/09 09:22:49;;;;;;;2.00;1.23;;;30.10;27.80;;;;;;5002313;28;20525;-46
2021/05/09 09:25:17;;;;;;;2.30;1.33;;;30.50;27.90;;;;;;5005540;28;20491;-47
2021/05/09 09:27:46;;;;;;;1.07;0.90;;;30.90;28.10;;;;;;4998492;28;20425;-48
2021/05/09 09:30:15;;;;;;;1.40;1.30;;;31.30;27.80;;;;;;5010737;28;20444;-48
2021/05/09 09:32:40;;;;;;;1.83;1.20;;;31.70;27.60;;;;;;5003629;28;20840;-48
2021/05/09 09:35:45;;;;;;;2.17;1.33;;;31.80;24.70;;;;;;5006713;28;20506;-48
2021/05/09 09:38:31;;;;;;;1.30;1.20;;;32.00;24.00;;;;;;4948284;28;20242;-48
2021/05/09 09:41:06;;;;;;;3.43;1.20;;;31.80;24.00;;;;;;4998220;28;20496;-49
2021/05/09 09:43:32;;;;;;;1.43;1.33;;;32.00;24.50;;;;;;5000655;28;20955;-49
2021/05/09 09:45:57;;;;;;;1.67;1.30;;;31.90;23.80;;;;;;5010227;28;20515;-49
2021/05/09 09:48:37;;;;;;;1.33;1.20;;;32.20;24.70;;;;;;5008009;28;20202;-47
2021/05/09 09:51:03;;;;;;;1.70;1.60;;;32.40;23.70;;;;;;5008079;28;20198;-46
2021/05/09 09:53:39;;;;;;;1.60;1.50;;;32.60;24.00;;;;;;5006351;28;20457;-47
2021/05/09 09:56:07;;;;;;;1.27;1.17;;;32.70;23.90;;;;;;5010637;28;22079;-47
2021/05/09 09:58:40;;;;;;;2.30;1.40;;;32.80;22.70;;;;;;5004596;28;20437;-47
2021/05/09 10:01:07;;;;;;;1.53;1.43;;;33.00;23.30;;;;;;5008929;28;20488;-48
2021/05/09 10:03:33;;;;;;;1.93;1.17;;;33.10;23.10;;;;;;4996728;28;20905;-48
2021/05/09 10:05:59;;;;;;;1.40;1.30;;;33.10;21.80;;;;;;4993528;28;20528;-47
2021/05/09 10:08:26;;;;;;;2.83;1.60;;;32.90;22.40;;;;;;5000525;28;20244;-47
2021/05/09 10:10:53;;;;;;;1.77;1.67;;;33.00;22.60;;;;;;5002905;28;20434;-47
2021/05/09 10:13:19;;;;;;;2.63;1.33;;;32.90;23.00;;;;;;5009166;28;20441;-43
2021/05/09 10:15:45;;;;;;;5.03;2.03;;;33.00;23.60;;;;;;5002681;28;20962;-44
2021/05/09 10:18:13;;;;;;;1.30;1.20;;;33.20;23.10;;;;;;4999076;28;20542;-44
2021/05/09 10:20:41;;;;;;;1.80;1.57;;;33.40;22.60;;;;;;4997201;28;20233;-43
2021/05/09 10:23:07;;;;;;;3.10;1.50;;;33.70;23.00;;;;;;4992839;28;20449;-42
2021/05/09 10:25:57;;;;;;;1.50;1.00;;;33.70;22.70;;;;;;4999968;28;20529;-42
2021/05/09 10:28:25;;;;;;;1.50;1.40;;;33.30;22.20;;;;;;4989702;28;21004;-43
2021/05/09 10:30:58;;;;;;;1.53;1.17;;;33.30;22.30;;;;;;5007071;28;20433;-42
2021/05/09 10:33:39;;;;;;;1.50;1.30;;;33.50;22.70;;;;;;4997902;28;20520;-45
2021/05/09 10:36:14;;;;;;;2.80;1.30;;;33.70;23.20;;;;;;5006222;28;20449;-42
2021/05/09 10:39:08;;;;;;;1.40;1.30;;;33.50;22.10;;;;;;5003156;28;20484;-44
2021/05/09 10:41:34;;;;;;;1.43;1.33;;;33.80;22.80;;;;;;5009200;28;21010;-45
2021/05/09 10:44:00;;;;;;;1.30;1.30;;;33.90;21.80;;;;;;5009635;28;20460;-44
2021/05/09 10:47:02;;;;;;;1.50;1.40;;;34.00;22.10;;;;;;5012891;28;20491;-44
2021/05/09 10:49:28;;;;;;;1.37;1.27;;;34.10;21.70;;;;;;5010821;28;20204;-43
2021/05/09 10:51:53;;;;;;;2.60;2.03;;;33.90;21.70;;;;;;5011744;28;20436;-43
2021/05/09 10:54:24;;;;;;;1.50;1.33;;;33.80;21.80;;;;;;5018849;28;20221;-43
2021/05/09 10:56:53;;;;;;;1.83;1.33;;;34.00;22.00;;;;;;5022957;28;20249;-44
2021/05/09 10:59:19;;;;;;;1.87;1.57;;;33.90;22.10;;;;;;5018404;28;20436;-43
2021/05/09 11:01:44;;;;;;;1.50;1.10;;;34.00;21.80;;;;;;5014051;28;20428;-43
2021/05/09 11:04:14;;;;;;;2.50;2.10;;;34.00;22.20;;;;;;5014600;28;20430;-44
2021/05/09 11:06:48;;;;;;;2.20;1.60;;;34.20;21.90;;;;;;5010585;28;20202;-44
2021/05/09 11:09:21;;;;;;;2.20;1.47;;;34.30;21.90;;;;;;5012257;28;20433;-43
2021/05/09 11:11:46;;;;;;;3.70;1.27;;;34.40;21.60;;;;;;5011532;28;20456;-43
2021/05/09 11:14:12;;;;;;;1.43;1.33;;;34.40;21.00;;;;;;5012437;28;20852;-44
2021/05/09 11:17:02;;;;;;;1.40;1.30;;;34.20;21.30;;;;;;5016342;28;20560;-43
2021/05/09 11:19:54;;;;;;;2.50;1.40;;;34.20;21.60;;;;;;4999361;28;20252;-43
2021/05/09 11:22:22;;;;;;;1.30;1.20;;;34.50;22.00;;;;;;5014591;28;20848;-43
2021/05/09 11:24:54;;;;;;;3.73;1.60;;;34.10;21.20;;;;;;5012962;28;20441;-44
2021/05/09 11:27:20;;;;;;;1.27;1.20;;;34.20;21.20;;;;;;5011625;28;20928;-44
2021/05/09 11:29:51;;;;;;;1.37;1.27;;;34.00;21.20;;;;;;5011111;28;20826;-45
2021/05/09 11:32:19;;;;;;;1.87;1.50;;;34.10;21.70;;;;;;5010233;28;20429;-43
2021/05/09 11:34:51;;;;;;;1.93;1.40;;;34.20;21.40;;;;;;5009828;28;20952;-46
2021/05/09 11:37:18;;;;;;;1.30;1.20;;;34.50;21.50;;;;;;5009656;28;20837;-43
2021/05/09 11:39:44;;;;;;;1.57;1.40;;;34.50;20.80;;;;;;5012070;28;20489;-44
2021/05/09 11:42:17;;;;;;;4.33;1.77;;;34.60;20.90;;;;;;5011454;28;20445;-43
2021/05/09 11:44:52;;;;;;;1.90;1.80;;;34.70;21.00;;;;;;5010436;28;20218;-43
2021/05/09 11:47:21;;;;;;;1.30;1.20;;;34.90;21.70;;;;;;5008077;28;20435;-43
2021/05/09 11:49:48;;;;;;;2.07;1.23;;;34.90;20.10;;;;;;5012128;28;20496;-46
2021/05/09 11:52:21;;;;;;;1.43;1.33;;;34.80;20.40;;;;;;5011731;28;20455;-47
2021/05/09 11:54:52;;;;;;;1.30;1.27;;;34.60;20.60;;;;;;5009165;28;20576;-43
2021/05/09 11:57:20;;;;;;;2.80;1.37;;;34.80;20.20;;;;;;5009495;28;20535;-43
2021/05/09 12:00:06;;;;;;;2.30;1.80;;;34.60;20.70;;;;;;5011441;28;20484;-43
2021/05/09 12:02:34;;;;;;;1.67;1.57;;;34.50;21.00;;;;;;5010722;28;21052;-44
2021/05/09 12:05:09;;;;;;;1.87;1.30;;;34.80;20.80;;;;;;5011731;28;20834;-45
2021/05/09 12:07:44;;;;;;;1.60;1.50;;;34.90;20.20;;;;;;5007328;28;20798;-43
2021/05/09 12:10:26;;;;;;;1.80;1.60;;;35.10;20.40;;;;;;5011308;28;20476;-44
2021/05/09 12:13:07;;;;;;;1.67;1.43;;;35.40;20.30;;;;;;5004808;28;20434;-44
2021/05/09 12:15:37;;;;;;;1.50;1.40;;;35.50;19.80;;;;;;5013522;28;20608;-44
2021/05/09 12:18:03;;;;;;;1.33;1.23;;;35.20;19.70;;;;;;5007532;28;20451;-44
2021/05/09 12:20:40;;;;;;;1.83;1.50;;;35.00;20.00;;;;;;5018851;28;20455;-47
2021/05/09 12:23:16;;;;;;;2.73;1.17;;;35.00;20.40;;;;;;5011276;28;20472;-44
2021/05/09 12:25:49;;;;;;;1.20;1.10;;;34.90;20.40;;;;;;5010254;28;20857;-45
2021/05/09 12:28:20;;;;;;;3.43;1.30;;;35.10;20.50;;;;;;5011553;28;20448;-44
2021/05/09 12:30:48;;;;;;;2.03;1.60;;;35.20;20.00;;;;;;5011652;28;20476;-45
2021/05/09 12:33:26;;;;;;;1.50;1.40;;;35.40;19.80;;;;;;5010258;28;20516;-44
2021/05/09 12:35:54;;;;;;;1.63;1.30;;;35.50;20.10;;;;;;5010195;28;20429;-44
2021/05/09 12:38:27;;;;;;;1.90;1.80;;;35.60;20.10;;;;;;5001975;28;20839;-44
2021/05/09 12:41:13;;;;;;;1.50;1.40;;;35.80;20.10;;;;;;4993158;28;20433;-44
2021/05/09 12:43:40;;;;;;;2.30;1.70;;;35.90;19.20;;;;;;5007631;28;20544;-44
2021/05/09 12:46:05;;;;;;;1.30;1.20;;;36.10;19.50;;;;;;5011446;28;20441;-45
2021/05/09 12:48:31;;;;;;;4.53;1.20;;;36.30;19.30;;;;;;5006308;28;20433;-44
2021/05/09 12:50:58;;;;;;;1.50;1.10;;;36.00;19.10;;;;;;5011024;28;20222;-44